Tempos de volta de THR THR WEEK / PROVA 11 - 22:30
KARTODROMO INTERNACIONAL GRANJA VIANA a funcionar KGV RACE TRACKS - CIRCUITO 111
Tempos de volta de THR - THR WEEK / PROVA 11 - 22:30


Hora do dia Volta Volta do Líder Volta Tm Velocidade
036 - BRUNO MONTELES - RENTAL
22:50:21.550 1 1 55.020 61,832
22:51:16.413 2 2 54.863 62,009
22:52:11.145 3 3 54.732 62,157
22:53:06.054 4 4 54.909 61,957
22:54:00.868 5 5 54.814 62,064
22:54:56.002 6 6 55.134 61,704
22:55:50.728 7 7 54.726 62,164
22:56:45.694 8 8 54.966 61,893
22:57:40.699 9 9 55.005 61,849
22:58:35.445 10 10 54.746 62,142
22:59:30.375 11 11 54.930 61,933
23:00:25.200 12 12 54.825 62,052
23:01:20.166 13 13 54.966 61,893
23:02:15.570 14 14 55.404 61,404
23:03:10.366 15 15 54.796 62,085
23:04:05.406 16 16 55.040 61,810
23:05:00.261 17 17 54.855 62,018
23:05:55.004 18 18 54.743 62,145
23:06:24.154 19 19 29.150 116,707
23:07:19.214 20 20 55.060 61,787
043 - ANTHONY PEPERONE - RENTAL
22:50:22.727 1 1 54.836 62,040
22:51:17.447 2 2 54.720 62,171
22:52:12.281 3 3 54.834 62,042
22:53:07.190 4 4 54.909 61,957
22:54:02.118 5 5 54.928 61,936
22:54:57.142 6 6 55.024 61,828
22:55:51.960 7 7 54.818 62,060
22:56:47.182 8 8 55.222 61,606
22:57:41.967 9 9 54.785 62,097
22:58:36.466 10 10 54.499 62,423
22:59:05.488 11 11 29.022 117,221
23:00:00.378 12 12 54.890 61,979
23:00:55.298 13 13 54.920 61,945
23:01:50.802 14 14 55.504 61,293
23:02:45.521 15 15 54.719 62,172
23:03:39.994 16 16 54.473 62,453
23:04:35.112 17 17 55.118 61,722
23:05:29.841 18 18 54.729 62,161
23:06:24.737 19 19 54.896 61,972
23:07:19.621 20 20 54.884 61,985
025 - GUSTAVO MARQUES - RENTAL
22:50:21.512 1 1 55.514 61,282
22:51:16.751 2 2 55.239 61,587
22:52:11.595 3 3 54.844 62,030
22:53:06.234 4 4 54.639 62,263
22:54:01.227 5 5 54.993 61,862
22:54:56.239 6 6 55.012 61,841
22:55:51.027 7 7 54.788 62,094
22:56:46.012 8 8 54.985 61,871
22:57:40.888 9 9 54.876 61,994
22:58:36.042 10 10 55.154 61,682
22:59:30.960 11 11 54.918 61,947
23:00:25.956 12 12 54.996 61,859
23:01:20.901 13 13 54.945 61,916
23:01:50.155 14 14 29.254 116,292
23:02:45.266 15 15 55.111 61,730
23:03:40.596 16 16 55.330 61,486
23:04:35.312 17 17 54.716 62,176
23:05:30.297 18 18 54.985 61,871
23:06:25.643 19 19 55.346 61,468
23:07:20.579 20 20 54.936 61,927
021 - MARCOS ALEMÃO - RENTAL
22:50:21.989 1 1 55.469 61,332
22:51:17.189 2 2 55.200 61,630
22:52:12.155 3 3 54.966 61,893
22:53:07.088 4 4 54.933 61,930
22:54:02.215 5 5 55.127 61,712
22:54:57.260 6 6 55.045 61,804
22:55:52.107 7 7 54.847 62,027
22:56:47.398 8 8 55.291 61,529
22:57:42.173 9 9 54.775 62,109
22:58:37.015 10 10 54.842 62,033
22:59:31.907 11 11 54.892 61,976
23:00:27.197 12 12 55.290 61,530
23:01:22.565 13 13 55.368 61,443
23:01:51.867 14 14 29.302 116,101
23:02:46.729 15 15 54.862 62,010
23:03:41.825 16 16 55.096 61,747
23:04:36.768 17 17 54.943 61,919
23:05:32.108 18 18 55.340 61,475
23:06:27.339 19 19 55.231 61,596
23:07:22.493 20 20 55.154 61,682
004 - EDUARDO NEVES - RENTAL
22:50:24.006 1 1 55.323 61,493
22:51:19.308 2 2 55.302 61,517
22:52:14.589 3 3 55.281 61,540
22:53:09.997 4 4 55.408 61,399
22:54:05.211 5 5 55.214 61,615
22:55:00.158 6 6 54.947 61,914
22:55:55.758 7 7 55.600 61,187
22:56:50.702 8 8 54.944 61,918
22:57:45.811 9 9 55.109 61,732
22:58:41.028 10 10 55.217 61,611
22:59:36.153 11 11 55.125 61,714
23:00:31.799 12 12 55.646 61,136
23:01:26.895 13 13 55.096 61,747
23:01:56.204 14 14 29.309 116,074
23:02:51.175 15 15 54.971 61,887
23:03:46.435 16 16 55.260 61,564
23:04:41.645 17 17 55.210 61,619
23:05:36.683 18 18 55.038 61,812
23:06:31.751 19 19 55.068 61,778
23:07:26.571 20 20 54.820 62,058
045 - PAULO SANTANA - RENTAL
22:50:24.397 1 1 55.058 61,789
22:51:20.110 2 2 55.713 61,063
22:52:15.192 3 3 55.082 61,762
22:53:10.568 4 4 55.376 61,435
22:54:05.742 5 5 55.174 61,659
22:55:00.518 6 6 54.776 62,107
22:55:55.591 7 7 55.073 61,773
22:56:50.560 8 8 54.969 61,889
22:57:19.836 9 9 29.276 116,204
22:58:15.076 10 10 55.240 61,586
22:59:10.891 11 11 55.815 60,951
23:00:06.322 12 12 55.431 61,374
23:01:01.588 13 13 55.266 61,557
23:01:56.812 14 14 55.224 61,604
23:02:52.178 15 15 55.366 61,446
23:03:46.979 16 16 54.801 62,079
23:04:41.854 17 17 54.875 61,995
23:05:37.025 18 18 55.171 61,663
23:06:31.855 19 19 54.830 62,046
23:07:26.701 20 20 54.846 62,028
044 - THIAGO MORAES - RENTAL
22:50:34.349 1 1 55.244 61,581
22:51:29.474 2 2 55.125 61,714
22:52:24.144 3 3 54.670 62,228
22:53:18.929 4 4 54.785 62,097
22:54:13.720 5 5 54.791 62,090
22:55:08.391 6 6 54.671 62,227
22:56:02.984 7 7 54.593 62,316
22:56:57.429 8 8 54.445 62,485
22:57:26.344 9 9 28.915 117,655
22:58:20.961 10 10 54.617 62,288
22:59:15.336 11 11 54.375 62,566
23:00:09.717 12 12 54.381 62,559
23:01:04.504 13 13 54.787 62,095
23:01:59.990 14 14 55.486 61,313
23:02:54.225 15 15 54.235 62,727
23:03:49.902 16 16 55.677 61,102
23:04:44.488 17 17 54.586 62,324
23:05:39.016 18 18 54.528 62,390
23:06:33.783 19 19 54.767 62,118
23:07:28.652 20 20 54.869 62,002
052 - JOHNNY SILVA - CONVIDADO
22:50:27.095 1 1 55.493 61,305
22:50:56.186 2 2 29.091 116,943
22:51:51.099 3 3 54.913 61,953
22:52:46.340 4 4 55.241 61,585
22:53:41.671 5 5 55.331 61,485
22:54:37.056 6 6 55.385 61,425
22:55:32.403 7 7 55.347 61,467
22:56:27.616 8 8 55.213 61,616
22:57:22.953 9 9 55.337 61,478
22:58:18.148 10 10 55.195 61,636
22:59:13.285 11 11 55.137 61,701
23:00:08.551 12 12 55.266 61,557
23:01:03.969 13 13 55.418 61,388
23:02:00.545 14 14 56.576 60,132
23:02:55.771 15 15 55.226 61,601
23:03:51.017 16 16 55.246 61,579
23:04:46.157 17 17 55.140 61,697
23:05:41.289 18 18 55.132 61,706
23:06:36.300 19 19 55.011 61,842
23:07:31.400 20 20 55.100 61,742
005 - ZÉ PRIOSTE - RENTAL
22:50:25.503 1 1 55.241 61,585
22:51:20.509 2 2 55.006 61,848
22:52:15.912 3 3 55.403 61,405
22:53:11.665 4 4 55.753 61,019
22:54:07.028 5 5 55.363 61,449
22:55:02.520 6 6 55.492 61,306
22:55:57.676 7 7 55.156 61,680
22:56:52.715 8 8 55.039 61,811
22:57:48.095 9 9 55.380 61,430
22:58:17.690 10 10 29.595 114,952
22:59:12.560 11 11 54.870 62,001
23:00:08.422 12 12 55.862 60,900
23:01:03.641 13 13 55.219 61,609
23:01:58.832 14 14 55.191 61,640
23:02:54.133 15 15 55.301 61,518
23:03:50.482 16 16 56.349 60,374
23:04:45.600 17 17 55.118 61,722
23:05:40.751 18 18 55.151 61,685
23:06:36.075 19 19 55.324 61,492
23:07:31.516 20 20 55.441 61,363
031 - ROBERTO FRANCISCO - CONVIDADO
22:50:27.209 1 1 55.440 61,364
22:50:56.274 2 2 29.065 117,048
22:51:51.224 3 3 54.950 61,911
22:52:46.559 4 4 55.335 61,480
22:53:41.773 5 5 55.214 61,615
22:54:37.156 6 6 55.383 61,427
22:55:32.546 7 7 55.390 61,419
22:56:27.717 8 8 55.171 61,663
22:57:23.090 9 9 55.373 61,438
22:58:18.348 10 10 55.258 61,566
22:59:13.828 11 11 55.480 61,319
23:00:09.713 12 12 55.885 60,875
23:01:05.034 13 13 55.321 61,496
23:02:00.647 14 14 55.613 61,173
23:02:56.352 15 15 55.705 61,072
23:03:51.981 16 16 55.629 61,155
23:04:47.439 17 17 55.458 61,344
23:05:43.198 18 18 55.759 61,013
23:06:38.593 19 19 55.395 61,413
23:07:33.947 20 20 55.354 61,459
020 - KLEBER BARBAROTTI - RENTAL
22:50:23.882 1 1 55.508 61,288
22:51:20.363 2 2 56.481 60,233
22:52:15.756 3 3 55.393 61,416
22:53:11.571 4 4 55.815 60,951
22:54:06.921 5 5 55.350 61,463
22:55:02.422 6 6 55.501 61,296
22:55:57.540 7 7 55.118 61,722
22:56:52.616 8 8 55.076 61,769
22:57:47.918 9 9 55.302 61,517
22:58:17.603 10 10 29.685 114,603
22:59:12.461 11 11 54.858 62,015
23:00:08.319 12 12 55.858 60,904
23:01:03.530 13 13 55.211 61,618
23:01:58.573 14 14 55.043 61,806
23:02:53.967 15 15 55.394 61,415
23:03:51.659 16 16 57.692 58,968
23:04:47.538 17 17 55.879 60,882
23:05:43.322 18 18 55.784 60,985
23:06:39.060 19 19 55.738 61,036
23:07:34.259 20 20 55.199 61,632
012 - PABLO BAGNATI - RENTAL
22:50:28.289 1 1 56.058 60,687
22:51:23.829 2 2 55.540 61,253
22:52:19.285 3 3 55.456 61,346
22:53:15.084 4 4 55.799 60,969
22:54:10.660 5 5 55.576 61,213
22:55:06.105 6 6 55.445 61,358
22:56:01.895 7 7 55.790 60,979
22:56:57.221 8 8 55.326 61,490
22:57:53.272 9 9 56.051 60,695
22:58:22.926 10 10 29.654 114,723
22:59:18.063 11 11 55.137 61,701
23:00:13.545 12 12 55.482 61,317
23:01:09.217 13 13 55.672 61,108
23:02:04.682 14 14 55.465 61,336
23:03:00.088 15 15 55.406 61,401
23:03:55.258 16 16 55.170 61,664
23:04:50.733 17 17 55.475 61,325
23:05:46.273 18 18 55.540 61,253
23:06:41.772 19 19 55.499 61,298
23:07:37.607 20 20 55.835 60,930
010 - GALVANI VIEIRA - CONVIDADO
22:50:23.867 1 1 55.290 61,530
22:51:19.672 2 2 55.805 60,962
22:52:15.590 3 3 55.918 60,839
22:53:10.900 4 4 55.310 61,508
22:54:06.696 5 5 55.796 60,972
22:55:02.887 6 6 56.191 60,544
22:55:58.385 7 7 55.498 61,300
22:56:54.014 8 8 55.629 61,155
22:57:24.079 9 9 30.065 113,155
22:58:19.494 10 10 55.415 61,391
22:59:15.826 11 11 56.332 60,392
23:00:11.406 12 12 55.580 61,209
23:01:07.353 13 13 55.947 60,808
23:02:03.084 14 14 55.731 61,043
23:02:58.925 15 15 55.841 60,923
23:03:55.930 16 16 57.005 59,679
23:04:51.646 17 17 55.716 61,060
23:05:47.098 18 18 55.452 61,350
23:06:42.673 19 19 55.575 61,215
23:07:39.497 20 20 56.824 59,869
015 - GILNEI SOARES - RENTAL
22:50:29.415 1 1 56.630 60,074
22:51:25.484 2 2 56.069 60,675
22:52:21.017 3 3 55.533 61,261
22:53:16.957 4 4 55.940 60,815
22:54:12.435 5 5 55.478 61,322
22:55:07.898 6 6 55.463 61,338
22:56:04.095 7 7 56.197 60,537
22:56:59.655 8 8 55.560 61,231
22:57:55.554 9 9 55.899 60,860
22:58:24.812 10 10 29.258 116,276
22:59:20.546 11 11 55.734 61,040
23:00:16.276 12 12 55.730 61,044
23:01:12.068 13 13 55.792 60,976
23:02:08.111 14 14 56.043 60,703
23:03:04.324 15 15 56.213 60,520
23:04:00.019 16 16 55.695 61,083
23:04:55.675 17 17 55.656 61,125
23:05:52.090 18 18 56.415 60,303
23:06:48.286 19 19 56.196 60,538
23:07:44.383 20 20 56.097 60,645
009 - JOSÉ PATTARO - RENTAL
22:50:30.629 1 1 56.362 60,360
22:51:26.327 2 2 55.698 61,079
22:52:22.021 3 3 55.694 61,084
22:53:17.899 4 4 55.878 60,883
22:54:13.637 5 5 55.738 61,036
22:55:09.445 6 6 55.808 60,959
22:56:05.011 7 7 55.566 61,224
22:57:00.785 8 8 55.774 60,996
22:57:30.412 9 9 29.627 114,828
22:58:25.965 10 10 55.553 61,239
22:59:22.507 11 11 56.542 60,168
23:00:18.168 12 12 55.661 61,120
23:01:13.977 13 13 55.809 60,958
23:02:10.120 14 14 56.143 60,595
23:03:05.867 15 15 55.747 61,026
23:04:01.907 16 16 56.040 60,707
23:04:57.699 17 17 55.792 60,976
23:05:53.891 18 18 56.192 60,542
23:06:49.777 19 19 55.886 60,874
23:07:45.624 20 20 55.847 60,916
002 - LEO GIARDINI - CONVIDADO
22:50:23.149 1 1 55.150 61,686
22:51:18.142 2 2 54.993 61,862
22:52:13.231 3 3 55.089 61,755
22:53:08.143 4 4 54.912 61,954
22:54:03.334 5 5 55.191 61,640
22:54:58.301 6 6 54.967 61,892
22:55:53.386 7 7 55.085 61,759
22:56:48.381 8 8 54.995 61,860
22:57:43.340 9 9 54.959 61,901
22:58:38.450 10 10 55.110 61,731
22:59:33.685 11 11 55.235 61,591
23:00:28.857 12 12 55.172 61,662
23:01:24.078 13 13 55.221 61,607
23:02:19.257 14 14 55.179 61,654
23:03:15.387 15 15 56.130 60,609
23:04:10.690 16 16 55.303 61,516
23:05:05.874 17 17 55.184 61,648
23:06:01.660 18 18 55.786 60,983
23:06:57.069 19 19 55.409 61,398
23:07:52.220 20 20 55.151 61,685
053 - RAFAEL CROCE - CONVIDADO
22:50:29.717 1 1 58.095 58,559
22:51:25.777 2 2 56.060 60,685
22:52:21.782 3 3 56.005 60,745
22:53:18.447 4 4 56.665 60,037
22:54:14.835 5 5 56.388 60,332
22:55:10.778 6 6 55.943 60,812
22:56:07.220 7 7 56.442 60,274
22:56:37.167 8 8 29.947 113,601
22:57:33.597 9 9 56.430 60,287
22:58:30.021 10 10 56.424 60,293
22:59:26.219 11 11 56.198 60,536
23:00:23.347 12 12 57.128 59,550
23:01:19.908 13 13 56.561 60,147
23:02:17.565 14 14 57.657 59,004
23:03:15.501 15 15 57.936 58,720
23:04:12.614 16 16 57.113 59,566
23:05:09.214 17 17 56.600 60,106
23:06:06.646 18 18 57.432 59,235
23:07:03.517 19 19 56.871 59,820
23:08:00.532 20 20 57.015 59,669
019 - JUNINHO - CONVIDADO
22:50:33.167 1 1 57.795 58,863
22:51:31.161 2 2 57.994 58,661
22:52:28.199 3 3 57.038 59,644
22:52:58.124 4 4 29.925 113,684
22:53:55.090 5 5 56.966 59,720
22:54:52.427 6 6 57.337 59,333
22:55:49.886 7 7 57.459 59,207
22:56:49.369 8 8 59.483 57,193
22:57:47.280 9 9 57.911 58,745
22:58:44.403 10 10 57.123 59,556
22:59:41.898 11 11 57.495 59,170
23:00:39.583 12 12 57.685 58,975
23:01:37.139 13 13 57.556 59,108
23:02:34.689 14 14 57.550 59,114
23:03:31.933 15 15 57.244 59,430
23:04:28.571 16 16 56.638 60,066
23:05:25.252 17 17 56.681 60,020
23:06:22.275 18 18 57.023 59,660
23:07:19.279 19 20 57.004 59,680
054 - CARLOS CAMPUZANO - CONVIDADO
22:50:35.110 1 1 59.740 56,947
22:51:32.011 2 2 56.901 59,788
22:52:28.551 3 3 56.540 60,170
22:53:25.794 4 4 57.243 59,431
22:54:23.234 5 5 57.440 59,227
22:55:20.784 6 6 57.550 59,114
22:56:18.081 7 7 57.297 59,375
22:57:16.116 8 8 58.035 58,620
22:58:13.318 9 9 57.202 59,473
22:59:11.364 10 11 58.046 58,609
23:00:09.513 11 12 58.149 58,505
23:01:07.577 12 13 58.064 58,591
23:02:05.617 13 14 58.040 58,615
23:03:02.595 14 15 56.978 59,707
23:03:32.557 15 15 29.962 113,544
23:04:29.058 16 16 56.501 60,211
23:05:26.189 17 17 57.131 59,547
23:06:23.042 18 18 56.853 59,839
23:07:19.877 19 20 56.835 59,857
049 - VITOR PIÇARRA - CONVIDADO
22:50:44.409 1 1 1:08.760 49,476
22:51:40.572 2 2 56.163 60,574
22:52:36.734 3 3 56.162 60,575
22:53:32.768 4 4 56.034 60,713
22:54:28.744 5 5 55.976 60,776
22:55:25.391 6 6 56.647 60,056
22:56:21.345 7 7 55.954 60,800
22:57:17.278 8 8 55.933 60,823
22:58:13.578 9 9 56.300 60,426
22:59:11.561 10 11 57.983 58,672
23:00:10.316 11 12 58.755 57,901
23:01:07.197 12 13 56.881 59,809
23:02:04.001 13 14 56.804 59,890
23:03:00.128 14 15 56.127 60,613
23:03:56.179 15 16 56.051 60,695
23:04:51.790 16 17 55.611 61,175
23:05:47.331 17 18 55.541 61,252
23:06:43.400 18 19 56.069 60,675
23:07:39.582 19 20 56.182 60,553
037 - MARCELO ROCHA - CONVIDADO
22:50:29.050 1 1 57.268 59,405
22:51:26.034 2 2 56.984 59,701
22:52:22.763 3 3 56.729 59,969
22:53:19.173 4 4 56.410 60,308
22:54:15.233 5 5 56.060 60,685
22:55:11.520 6 6 56.287 60,440
22:56:07.745 7 7 56.225 60,507
22:57:03.925 8 8 56.180 60,555
22:57:33.518 9 9 29.593 114,960
22:58:29.773 10 10 56.255 60,475
22:59:26.298 11 11 56.525 60,186
23:00:23.731 12 12 57.433 59,234
23:01:20.122 13 13 56.391 60,329
23:02:17.633 14 14 57.511 59,154
23:03:15.057 15 15 57.424 59,244
23:04:12.433 16 16 57.376 59,293
024 - DIEGO SANTOS - RENTAL
22:50:33.804 1 1 56.764 59,932
22:51:29.396 2 2 55.592 61,196
22:52:24.818 3 3 55.422 61,384
22:53:20.183 4 4 55.365 61,447
22:54:15.456 5 5 55.273 61,549
22:55:10.826 6 6 55.370 61,441
22:55:40.157 7 7 29.331 115,986
22:56:35.817 8 8 55.660 61,121
22:57:31.078 9 9 55.261 61,562
22:58:26.366 10 10 55.288 61,532
22:59:21.847 11 11 55.481 61,318
23:00:17.091 12 12 55.244 61,581
23:01:12.367 13 13 55.276 61,546
23:02:07.604 14 14 55.237 61,589
23:03:02.999 15 15 55.395 61,413
23:03:58.453 16 16 55.454 61,348
23:04:53.616 17 17 55.163 61,672
23:05:48.884 18 18 55.268 61,555
23:06:43.994 19 19 55.110 61,731
23:07:13.242 20 20 29.248 116,316
Gerada em 02/09/2021 23:10